Time;durP1;ratioP1;P1;durP2;ratioP2;P2;SDS_P1;SDS_P2;PMS_P1;PMS_P2;Temp;Humidity;BMP_temperature;BMP_pressure;BME280_temperature;BME280_humidity;BME280_pressure;Samples;Min_cycle;Max_cycle;Signal;HPM_P1;HPM_P2
2021/06/27 00:01:38;;;;;;;16.83;13.90;;;19.20;50.40;;;;;;5044059;28;20393;-78
2021/06/27 00:04:04;;;;;;;21.80;13.90;;;19.30;50.70;;;;;;5048659;28;20953;-77
2021/06/27 00:06:29;;;;;;;17.90;14.70;;;19.30;50.60;;;;;;5049091;28;20385;-78
2021/06/27 00:08:55;;;;;;;18.00;14.40;;;19.10;52.20;;;;;;5050798;28;20416;-78
2021/06/27 00:11:24;;;;;;;20.33;14.80;;;19.00;54.40;;;;;;5062602;28;20559;-78
2021/06/27 00:13:50;;;;;;;18.02;14.20;;;19.00;54.80;;;;;;5049459;28;20490;-78
2021/06/27 00:16:16;;;;;;;18.90;14.32;;;18.90;55.00;;;;;;5042148;28;20405;-78
2021/06/27 00:18:42;;;;;;;20.63;15.40;;;18.90;56.00;;;;;;5040526;28;20510;-78
2021/06/27 00:21:10;;;;;;;17.70;14.20;;;18.90;56.00;;;;;;5031080;28;20906;-77
2021/06/27 00:23:39;;;;;;;19.98;14.95;;;18.80;55.70;;;;;;5030388;28;20799;-78
2021/06/27 00:26:08;;;;;;;17.90;15.07;;;18.60;58.00;;;;;;5042707;28;20393;-79
2021/06/27 00:28:34;;;;;;;16.43;14.57;;;18.50;59.50;;;;;;5049557;28;20401;-78
2021/06/27 00:31:02;;;;;;;19.83;14.97;;;18.30;60.80;;;;;;5051945;28;20377;-78
2021/06/27 00:33:29;;;;;;;18.48;14.80;;;18.40;62.00;;;;;;5050082;28;20397;-78
2021/06/27 00:35:55;;;;;;;21.48;16.00;;;18.60;59.40;;;;;;5043017;28;20472;-78
2021/06/27 00:38:20;;;;;;;19.90;14.70;;;18.80;58.30;;;;;;5049213;28;20464;-77
2021/06/27 00:40:46;;;;;;;19.10;14.80;;;18.90;57.40;;;;;;5050278;28;20873;-78
2021/06/27 00:43:12;;;;;;;19.27;14.40;;;18.90;55.90;;;;;;5049523;28;20459;-77
2021/06/27 00:45:39;;;;;;;19.90;15.23;;;18.90;56.50;;;;;;5048403;28;20377;-77
2021/06/27 00:48:06;;;;;;;21.05;15.77;;;18.80;56.20;;;;;;5030952;28;20390;-77
2021/06/27 00:50:35;;;;;;;19.67;14.73;;;18.80;57.00;;;;;;5031096;28;20387;-76
2021/06/27 00:53:01;;;;;;;20.15;15.35;;;18.60;59.00;;;;;;5032739;28;20438;-76
2021/06/27 00:55:26;;;;;;;20.27;15.18;;;18.40;60.20;;;;;;5052805;28;20492;-76
2021/06/27 00:57:53;;;;;;;18.13;14.80;;;18.30;62.50;;;;;;5053854;28;20389;-77
2021/06/27 01:00:23;;;;;;;17.20;15.05;;;18.20;64.20;;;;;;5051207;28;20412;-77
2021/06/27 01:02:49;;;;;;;21.90;16.67;;;18.30;63.00;;;;;;5034713;28;20383;-77
2021/06/27 01:05:18;;;;;;;19.00;15.90;;;18.30;62.60;;;;;;5052451;28;20914;-77
2021/06/27 01:07:44;;;;;;;21.13;16.00;;;18.20;64.30;;;;;;5055836;28;20468;-76
2021/06/27 01:10:11;;;;;;;18.85;15.40;;;18.10;65.70;;;;;;5057090;28;20400;-77
2021/06/27 01:12:37;;;;;;;21.50;16.10;;;18.10;65.50;;;;;;5055311;28;20390;-76
2021/06/27 01:15:05;;;;;;;20.75;16.25;;;18.20;64.10;;;;;;5054774;28;20763;-76
2021/06/27 01:17:31;;;;;;;25.15;16.55;;;18.20;62.90;;;;;;5060872;28;20727;-77
2021/06/27 01:19:56;;;;;;;21.90;16.40;;;18.30;62.00;;;;;;5062734;28;20420;-76
2021/06/27 01:22:24;;;;;;;19.42;14.93;;;18.30;60.90;;;;;;5039596;28;20400;-77
2021/06/27 01:24:50;;;;;;;19.83;15.95;;;18.40;60.30;;;;;;5049847;28;20695;-77
2021/06/27 01:27:16;;;;;;;21.73;16.13;;;18.40;60.50;;;;;;5039607;28;20470;-76
2021/06/27 01:29:41;;;;;;;19.33;15.52;;;18.10;63.10;;;;;;5036379;28;20398;-76
2021/06/27 01:32:10;;;;;;;19.40;15.10;;;18.10;63.10;;;;;;5039192;28;20470;-78
2021/06/27 01:34:38;;;;;;;21.77;16.33;;;18.10;63.70;;;;;;5048652;28;20427;-77
2021/06/27 01:37:05;;;;;;;20.67;16.17;;;18.00;65.90;;;;;;5053920;28;20886;-77
2021/06/27 01:39:31;;;;;;;21.00;15.10;;;17.90;66.10;;;;;;5037816;28;20407;-78
2021/06/27 01:41:56;;;;;;;19.05;15.45;;;18.00;65.40;;;;;;5033501;28;20845;-77
2021/06/27 01:44:22;;;;;;;21.50;15.70;;;17.70;69.20;;;;;;5047086;28;20401;-77
2021/06/27 01:46:47;;;;;;;20.70;16.50;;;17.60;70.50;;;;;;5043712;28;20383;-77
2021/06/27 01:49:13;;;;;;;20.50;16.13;;;17.30;73.50;;;;;;5042984;28;20446;-77
2021/06/27 01:51:40;;;;;;;20.52;15.20;;;17.40;73.20;;;;;;5055572;28;20878;-77
2021/06/27 01:54:06;;;;;;;22.08;16.33;;;17.40;73.90;;;;;;5056332;28;20394;-77
2021/06/27 01:56:33;;;;;;;22.65;16.63;;;17.40;75.30;;;;;;5055944;28;20422;-77
2021/06/27 01:59:02;;;;;;;21.92;16.73;;;17.30;76.90;;;;;;5050351;28;20428;-78
2021/06/27 02:01:30;;;;;;;24.35;17.83;;;17.30;77.50;;;;;;5055847;28;20443;-78
2021/06/27 02:03:56;;;;;;;26.67;18.77;;;17.30;77.10;;;;;;5056035;28;21012;-77
2021/06/27 02:06:24;;;;;;;25.73;17.93;;;17.30;78.00;;;;;;5049268;28;20429;-77
2021/06/27 02:08:50;;;;;;;22.48;17.55;;;17.20;79.10;;;;;;5034983;28;20387;-77
2021/06/27 02:11:19;;;;;;;21.02;16.65;;;17.40;77.60;;;;;;5041833;28;20437;-77
2021/06/27 02:13:46;;;;;;;20.90;17.10;;;17.40;78.40;;;;;;5052390;28;20405;-76
2021/06/27 02:16:12;;;;;;;24.63;17.38;;;17.20;79.10;;;;;;5048558;28;20399;-76
2021/06/27 02:18:40;;;;;;;26.83;18.35;;;17.30;78.90;;;;;;5035319;28;20879;-78
2021/06/27 02:21:25;;;;;;;24.13;17.38;;;17.40;78.50;;;;;;5032267;28;20437;-77
2021/06/27 02:23:51;;;;;;;23.10;18.58;;;17.10;80.00;;;;;;5040162;28;20458;-73
2021/06/27 02:26:18;;;;;;;24.20;16.63;;;17.20;80.60;;;;;;5047590;28;20401;-75
2021/06/27 02:28:46;;;;;;;22.23;17.33;;;17.20;80.80;;;;;;5050534;28;20398;-74
2021/06/27 02:31:12;;;;;;;24.20;17.00;;;17.30;79.40;;;;;;5051890;28;20518;-75
2021/06/27 02:33:39;;;;;;;26.73;18.23;;;17.30;78.40;;;;;;5051405;28;20436;-77
2021/06/27 02:36:05;;;;;;;24.38;18.35;;;17.30;79.20;;;;;;5052009;28;20385;-77
2021/06/27 02:38:31;;;;;;;22.30;17.30;;;17.50;77.90;;;;;;5057347;28;20911;-77
2021/06/27 02:40:57;;;;;;;22.58;18.25;;;17.40;78.00;;;;;;5055496;28;20462;-75
2021/06/27 02:43:23;;;;;;;24.33;18.13;;;17.20;81.10;;;;;;5036048;28;20382;-74
2021/06/27 02:45:49;;;;;;;22.10;17.77;;;17.20;82.00;;;;;;5032683;28;20797;-75
2021/06/27 02:48:15;;;;;;;26.87;18.43;;;17.00;83.70;;;;;;5033598;28;20498;-74
2021/06/27 02:50:42;;;;;;;21.95;18.08;;;16.90;85.90;;;;;;5050868;28;20427;-76
2021/06/27 02:53:08;;;;;;;25.40;18.07;;;16.70;87.40;;;;;;5036591;28;20428;-74
2021/06/27 02:55:34;;;;;;;22.95;18.40;;;16.60;88.80;;;;;;5037977;28;20898;-76
2021/06/27 02:58:00;;;;;;;22.00;17.57;;;16.70;90.10;;;;;;5049969;28;20405;-76
2021/06/27 03:00:26;;;;;;;22.20;17.13;;;17.00;86.30;;;;;;5051286;28;20504;-76
2021/06/27 03:02:51;;;;;;;21.38;16.90;;;17.10;84.00;;;;;;5039820;28;20803;-77
2021/06/27 03:05:18;;;;;;;24.25;18.35;;;17.00;84.60;;;;;;5042711;28;20420;-75
2021/06/27 03:07:44;;;;;;;24.53;18.20;;;16.80;87.00;;;;;;5048296;28;20395;-77
2021/06/27 03:10:12;;;;;;;22.52;18.08;;;16.60;88.70;;;;;;5056992;28;20424;-76
2021/06/27 03:12:42;;;;;;;26.87;17.77;;;16.60;90.30;;;;;;5066328;28;20467;-76
2021/06/27 03:15:09;;;;;;;24.58;17.10;;;16.50;90.60;;;;;;5039534;28;20452;-77
2021/06/27 03:17:35;;;;;;;28.17;19.00;;;16.40;91.70;;;;;;5042379;28;20427;-77
2021/06/27 03:20:01;;;;;;;24.27;18.92;;;16.40;92.40;;;;;;5038834;28;20403;-75
2021/06/27 03:22:26;;;;;;;22.42;17.83;;;16.40;92.70;;;;;;5031720;28;20501;-76
2021/06/27 03:24:52;;;;;;;22.02;17.17;;;16.50;92.00;;;;;;5031492;28;20415;-76
2021/06/27 03:27:20;;;;;;;23.13;17.83;;;16.60;90.80;;;;;;5038953;28;20793;-76
2021/06/27 03:29:46;;;;;;;21.92;17.50;;;16.50;91.40;;;;;;5048689;28;20692;-76
2021/06/27 03:32:12;;;;;;;24.83;19.20;;;16.70;90.60;;;;;;5031250;28;20387;-76
2021/06/27 03:34:37;;;;;;;22.55;17.63;;;16.90;89.20;;;;;;5030875;28;20401;-75
2021/06/27 03:37:03;;;;;;;22.17;16.70;;;16.90;88.70;;;;;;5032474;28;20803;-75
2021/06/27 03:39:30;;;;;;;24.00;16.02;;;17.20;85.60;;;;;;5050644;28;20409;-75
2021/06/27 03:41:55;;;;;;;22.40;16.00;;;17.40;82.70;;;;;;5031514;28;20388;-76
2021/06/27 03:44:22;;;;;;;20.85;15.95;;;17.50;79.80;;;;;;5050254;28;20902;-76
2021/06/27 03:46:48;;;;;;;21.80;16.30;;;17.60;77.90;;;;;;5030045;28;20391;-75
2021/06/27 03:49:14;;;;;;;22.50;16.45;;;17.60;78.50;;;;;;5049190;28;20409;-75
2021/06/27 03:51:40;;;;;;;19.90;15.80;;;17.50;78.70;;;;;;5035498;28;20399;-76
2021/06/27 03:54:06;;;;;;;24.40;16.30;;;17.40;81.80;;;;;;5037335;28;20441;-77
2021/06/27 03:56:32;;;;;;;21.30;15.80;;;17.50;80.80;;;;;;5041867;28;20892;-78
2021/06/27 03:58:58;;;;;;;24.30;15.75;;;17.70;78.50;;;;;;5067906;28;20412;-79
2021/06/27 04:01:23;;;;;;;25.00;15.63;;;17.80;77.40;;;;;;5067255;28;20420;-79
2021/06/27 04:03:49;;;;;;;21.20;14.90;;;17.80;78.90;;;;;;5072064;28;20512;-79
2021/06/27 04:06:15;;;;;;;19.60;15.70;;;17.90;77.40;;;;;;5086586;28;20415;-80
2021/06/27 04:08:41;;;;;;;19.27;14.73;;;18.00;76.10;;;;;;5052288;28;20400;-80
2021/06/27 04:11:07;;;;;;;19.47;15.67;;;18.20;72.50;;;;;;5052845;28;20401;-80
2021/06/27 04:13:35;;;;;;;21.33;14.95;;;18.20;73.50;;;;;;5056825;28;20389;-78
2021/06/27 04:16:01;;;;;;;28.70;15.55;;;18.30;71.60;;;;;;5068417;28;20377;-78
2021/06/27 04:18:27;;;;;;;22.05;15.10;;;18.40;70.60;;;;;;5052522;28;20393;-78
2021/06/27 04:20:55;;;;;;;17.50;14.07;;;18.40;69.20;;;;;;5050048;28;20455;-78
2021/06/27 04:23:20;;;;;;;20.88;15.13;;;18.30;71.00;;;;;;5078026;28;20401;-78
2021/06/27 04:25:46;;;;;;;20.87;15.10;;;18.30;70.60;;;;;;5052610;28;20414;-77
2021/06/27 04:28:12;;;;;;;21.58;14.20;;;18.30;70.70;;;;;;5041077;28;20383;-77
2021/06/27 04:30:39;;;;;;;17.92;14.57;;;18.30;70.30;;;;;;5053712;28;20397;-78
2021/06/27 04:33:07;;;;;;;19.58;14.48;;;18.30;70.00;;;;;;5044978;28;20391;-79
2021/06/27 04:35:35;;;;;;;19.07;14.80;;;18.40;70.40;;;;;;5053413;28;20393;-79
2021/06/27 04:38:03;;;;;;;15.65;12.50;;;18.40;69.90;;;;;;5058369;28;20891;-78
2021/06/27 04:40:28;;;;;;;20.25;14.32;;;18.40;69.80;;;;;;5077334;28;20506;-78
2021/06/27 04:42:54;;;;;;;16.80;13.80;;;18.50;67.80;;;;;;5059952;28;20913;-77
2021/06/27 04:45:20;;;;;;;19.63;14.93;;;18.70;66.30;;;;;;5060080;28;20390;-77
2021/06/27 04:47:46;;;;;;;20.58;15.40;;;18.80;65.40;;;;;;5075205;28;20774;-78
2021/06/27 04:50:11;;;;;;;17.03;14.50;;;18.70;65.60;;;;;;5059400;28;20483;-78
2021/06/27 04:52:37;;;;;;;19.55;14.20;;;18.80;65.10;;;;;;5038933;28;20382;-80
2021/06/27 04:55:04;;;;;;;17.65;14.40;;;19.00;62.20;;;;;;5056426;28;20459;-79
2021/06/27 04:57:31;;;;;;;17.45;13.30;;;19.10;61.60;;;;;;5077659;28;20413;-78
2021/06/27 04:59:57;;;;;;;18.30;14.20;;;19.30;58.40;;;;;;5056445;28;20412;-79
2021/06/27 05:02:23;;;;;;;18.20;14.60;;;19.60;58.40;;;;;;5054959;28;20389;-79
2021/06/27 05:04:48;;;;;;;19.92;14.70;;;19.60;58.90;;;;;;5055792;28;20380;-78
2021/06/27 05:07:14;;;;;;;17.43;14.23;;;19.90;56.00;;;;;;5055864;28;20393;-78
2021/06/27 05:09:39;;;;;;;17.13;13.60;;;20.10;52.70;;;;;;5051502;28;20449;-78
2021/06/27 05:12:06;;;;;;;15.77;13.25;;;20.20;52.40;;;;;;5055100;28;20411;-79
2021/06/27 05:14:31;;;;;;;17.05;12.68;;;20.30;50.70;;;;;;5045235;28;20405;-79
2021/06/27 05:16:57;;;;;;;18.90;13.97;;;20.30;49.60;;;;;;5048323;28;20876;-77
2021/06/27 05:19:22;;;;;;;16.75;12.20;;;20.40;48.90;;;;;;5056864;28;20405;-77
2021/06/27 05:21:48;;;;;;;16.93;13.40;;;20.60;47.40;;;;;;5057521;28;20472;-77
2021/06/27 05:24:13;;;;;;;16.57;13.30;;;20.70;46.50;;;;;;5057001;28;20401;-77
2021/06/27 05:26:39;;;;;;;17.15;12.70;;;20.80;47.00;;;;;;5058395;28;20397;-78
2021/06/27 05:29:04;;;;;;;14.50;12.23;;;20.90;45.30;;;;;;5054152;28;20401;-77
2021/06/27 05:31:33;;;;;;;15.77;12.13;;;20.90;43.40;;;;;;5049816;28;20902;-76
2021/06/27 05:34:00;;;;;;;12.97;11.57;;;20.90;43.80;;;;;;5053486;28;20892;-76
2021/06/27 05:36:25;;;;;;;16.58;12.95;;;20.80;44.60;;;;;;5062626;28;20420;-77
2021/06/27 05:38:51;;;;;;;15.98;12.90;;;20.70;45.10;;;;;;5064478;28;20409;-77
2021/06/27 05:41:17;;;;;;;17.38;12.65;;;20.70;46.30;;;;;;5062526;28;20401;-76
2021/06/27 05:43:42;;;;;;;13.00;11.60;;;20.70;46.70;;;;;;5052831;28;20877;-76
2021/06/27 05:46:08;;;;;;;13.50;11.40;;;20.80;46.70;;;;;;5053276;28;20389;-76
2021/06/27 05:48:33;;;;;;;17.40;12.38;;;20.70;46.20;;;;;;5053373;28;20382;-76
2021/06/27 05:50:59;;;;;;;14.90;12.27;;;20.80;45.90;;;;;;5052944;28;20401;-77
2021/06/27 05:53:25;;;;;;;14.97;12.13;;;20.70;45.90;;;;;;5036167;28;20401;-76
2021/06/27 05:56:08;;;;;;;13.00;11.57;;;20.80;45.90;;;;;;5043487;28;20397;-77
2021/06/27 05:58:38;;;;;;;15.27;12.30;;;20.80;46.10;;;;;;5072397;28;20398;-77
2021/06/27 06:01:09;;;;;;;13.77;11.75;;;20.90;46.10;;;;;;5066036;28;20420;-77
2021/06/27 06:03:36;;;;;;;15.48;12.40;;;20.90;45.30;;;;;;5056212;28;20385;-76
2021/06/27 06:06:02;;;;;;;16.27;12.50;;;21.00;44.90;;;;;;5055823;28;20482;-75
2021/06/27 06:08:28;;;;;;;13.25;11.25;;;21.30;42.60;;;;;;5052113;28;20408;-75
2021/06/27 06:10:54;;;;;;;14.40;12.70;;;21.40;42.30;;;;;;5052419;28;20393;-75
2021/06/27 06:13:20;;;;;;;13.18;11.55;;;21.40;42.00;;;;;;5052102;28;20420;-78
2021/06/27 06:15:45;;;;;;;13.63;10.73;;;21.40;42.80;;;;;;5055841;28;20402;-78
2021/06/27 06:18:11;;;;;;;13.10;11.40;;;21.50;42.10;;;;;;5056441;28;20727;-78
2021/06/27 06:20:36;;;;;;;13.27;11.50;;;21.70;40.40;;;;;;5053564;28;20418;-78
2021/06/27 06:23:02;;;;;;;13.37;11.47;;;21.80;39.90;;;;;;5044478;28;20438;-78
2021/06/27 06:25:28;;;;;;;12.48;11.18;;;22.10;38.60;;;;;;5057733;28;20392;-78
2021/06/27 06:27:53;;;;;;;13.13;11.00;;;22.30;37.30;;;;;;5054193;28;20475;-78
2021/06/27 06:30:19;;;;;;;13.40;10.87;;;22.30;37.40;;;;;;5053809;28;20447;-78
2021/06/27 06:32:45;;;;;;;13.30;11.80;;;22.30;36.90;;;;;;5053295;28;20397;-79
2021/06/27 06:35:10;;;;;;;12.02;10.70;;;22.50;37.40;;;;;;5049633;28;20909;-77
2021/06/27 06:37:36;;;;;;;12.50;11.02;;;22.50;37.50;;;;;;5070462;28;20402;-77
2021/06/27 06:40:03;;;;;;;12.67;9.97;;;22.70;36.20;;;;;;5042772;28;20942;-77
2021/06/27 06:42:29;;;;;;;12.85;10.07;;;22.70;36.20;;;;;;5053343;28;20401;-78
2021/06/27 06:44:55;;;;;;;10.50;9.47;;;22.70;35.00;;;;;;5041347;28;20401;-77
2021/06/27 06:47:20;;;;;;;11.43;9.87;;;22.70;34.60;;;;;;5056533;28;20901;-78
2021/06/27 06:49:46;;;;;;;10.50;9.48;;;22.80;34.70;;;;;;5053607;28;20397;-79
2021/06/27 06:52:12;;;;;;;11.90;10.30;;;22.80;35.50;;;;;;5053918;28;20404;-78
2021/06/27 06:54:37;;;;;;;12.50;10.00;;;22.90;34.90;;;;;;5049989;28;20460;-77
2021/06/27 06:57:03;;;;;;;11.18;9.93;;;23.10;34.40;;;;;;5047657;28;20451;-78
2021/06/27 06:59:29;;;;;;;11.48;9.65;;;23.30;33.70;;;;;;5055906;28;20405;-78
2021/06/27 07:01:54;;;;;;;11.10;10.00;;;23.50;32.50;;;;;;5051330;28;20397;-77
2021/06/27 07:04:20;;;;;;;13.45;9.63;;;23.90;30.00;;;;;;5051133;28;20636;-78
2021/06/27 07:06:46;;;;;;;11.17;10.07;;;24.10;29.50;;;;;;5068720;28;20397;-76
2021/06/27 07:09:11;;;;;;;10.90;9.90;;;24.20;28.60;;;;;;5055800;28;20465;-78
2021/06/27 07:11:37;;;;;;;11.38;10.18;;;24.20;28.50;;;;;;5074451;28;20462;-78
2021/06/27 07:14:03;;;;;;;13.30;10.00;;;24.50;28.20;;;;;;5060468;28;20953;-77
2021/06/27 07:16:29;;;;;;;11.80;9.97;;;24.50;26.90;;;;;;5059847;28;20400;-78
2021/06/27 07:18:54;;;;;;;14.10;10.05;;;24.60;27.40;;;;;;5069253;28;20421;-75
2021/06/27 07:21:20;;;;;;;11.40;10.20;;;24.70;27.10;;;;;;5051939;28;20390;-76
2021/06/27 07:23:46;;;;;;;11.40;10.20;;;24.50;26.30;;;;;;5050968;28;20809;-77
2021/06/27 07:26:11;;;;;;;10.40;9.40;;;24.40;27.20;;;;;;5040522;28;20401;-76
2021/06/27 07:28:37;;;;;;;12.87;9.60;;;24.40;27.10;;;;;;5050496;28;20439;-75
2021/06/27 07:31:03;;;;;;;10.60;9.60;;;24.50;26.60;;;;;;5047979;28;20469;-74
2021/06/27 07:33:29;;;;;;;11.00;9.90;;;24.50;26.20;;;;;;5048952;28;20389;-76
2021/06/27 07:35:55;;;;;;;12.27;9.27;;;24.60;27.30;;;;;;5043077;28;20417;-76
2021/06/27 07:38:21;;;;;;;10.50;9.50;;;24.60;25.40;;;;;;5041452;28;20441;-75
2021/06/27 07:40:46;;;;;;;10.65;9.65;;;24.70;25.70;;;;;;5050026;28;20596;-75
2021/06/27 07:43:12;;;;;;;12.35;10.45;;;24.80;27.30;;;;;;5049419;28;20952;-75
2021/06/27 07:45:37;;;;;;;10.77;9.10;;;25.00;25.10;;;;;;5054929;28;20382;-77
2021/06/27 07:48:04;;;;;;;9.70;8.80;;;25.10;25.20;;;;;;5043290;28;20397;-77
2021/06/27 07:50:29;;;;;;;12.48;9.70;;;25.10;24.90;;;;;;5067681;28;20381;-76
2021/06/27 07:52:55;;;;;;;11.35;9.60;;;25.20;23.90;;;;;;5048957;28;20480;-77
2021/06/27 07:55:21;;;;;;;10.90;9.73;;;25.40;23.70;;;;;;5052239;28;20392;-76
2021/06/27 07:57:46;;;;;;;10.50;8.82;;;25.70;23.60;;;;;;5050345;28;20393;-76
2021/06/27 08:00:12;;;;;;;11.33;9.10;;;26.00;22.10;;;;;;5052906;28;20405;-77
2021/06/27 08:02:38;;;;;;;10.00;8.98;;;26.10;20.60;;;;;;5067807;28;20476;-76
2021/06/27 08:05:05;;;;;;;11.30;9.50;;;26.20;19.90;;;;;;5051271;28;20417;-78
2021/06/27 08:07:30;;;;;;;9.52;8.63;;;26.30;20.10;;;;;;5049631;28;20397;-77
2021/06/27 08:09:56;;;;;;;10.67;9.53;;;26.30;20.50;;;;;;5051813;28;20538;-77
2021/06/27 08:12:22;;;;;;;9.83;8.83;;;26.50;19.50;;;;;;5054134;28;20404;-74
2021/06/27 08:14:48;;;;;;;9.80;8.80;;;26.60;19.80;;;;;;5045508;28;20403;-74
2021/06/27 08:17:13;;;;;;;9.40;8.60;;;26.80;19.40;;;;;;5047984;28;20547;-75
2021/06/27 08:19:39;;;;;;;10.50;9.23;;;26.80;18.60;;;;;;5043009;28;20455;-75
2021/06/27 08:22:05;;;;;;;9.70;8.70;;;26.80;18.40;;;;;;5050293;28;20775;-75
2021/06/27 08:24:30;;;;;;;9.40;8.50;;;26.80;18.20;;;;;;5047599;28;20933;-75
2021/06/27 08:26:56;;;;;;;9.17;8.30;;;26.80;18.30;;;;;;5047654;28;20441;-76
2021/06/27 08:29:22;;;;;;;9.30;8.20;;;26.70;17.80;;;;;;5044296;28;20888;-76
2021/06/27 08:31:47;;;;;;;10.82;8.65;;;26.80;17.90;;;;;;5049365;28;20411;-75
2021/06/27 08:34:13;;;;;;;10.17;9.17;;;26.80;18.00;;;;;;5046124;28;20393;-75
2021/06/27 08:36:39;;;;;;;9.68;8.73;;;26.90;18.30;;;;;;5040931;28;20405;-76
2021/06/27 08:39:05;;;;;;;9.45;8.55;;;27.00;18.60;;;;;;5039651;28;20413;-75
2021/06/27 08:41:32;;;;;;;9.00;8.10;;;27.20;17.70;;;;;;5042626;28;20401;-76
2021/06/27 08:43:59;;;;;;;8.88;8.10;;;27.50;17.40;;;;;;5045287;28;20389;-76
2021/06/27 08:46:25;;;;;;;8.77;8.07;;;27.60;16.80;;;;;;5044242;28;20393;-76
2021/06/27 08:48:52;;;;;;;10.88;8.35;;;27.70;17.00;;;;;;5049488;28;20404;-75
2021/06/27 08:51:18;;;;;;;9.00;8.20;;;27.80;16.60;;;;;;5065015;28;20394;-76
2021/06/27 08:53:44;;;;;;;8.37;7.60;;;27.80;16.30;;;;;;5034355;28;20744;-75
2021/06/27 08:56:11;;;;;;;10.40;9.40;;;27.80;15.10;;;;;;5042667;28;20883;-75
2021/06/27 08:58:37;;;;;;;10.20;7.55;;;27.70;15.20;;;;;;5054280;28;20397;-78
2021/06/27 09:01:05;;;;;;;8.10;7.25;;;27.80;15.80;;;;;;5044200;28;20492;-76
2021/06/27 09:03:31;;;;;;;9.18;6.80;;;28.10;15.50;;;;;;5049214;28;20389;-75
2021/06/27 09:05:58;;;;;;;8.70;7.80;;;28.20;15.50;;;;;;5053792;28;20409;-78
2021/06/27 09:08:24;;;;;;;7.40;6.70;;;28.00;14.20;;;;;;5053255;28;20395;-75
2021/06/27 09:10:50;;;;;;;8.33;7.20;;;28.10;14.50;;;;;;5049430;28;20535;-76
2021/06/27 09:13:16;;;;;;;9.38;7.78;;;28.20;14.00;;;;;;5046394;28;20933;-77
2021/06/27 09:15:50;;;;;;;8.25;7.55;;;28.10;14.80;;;;;;5038164;28;20824;-75
2021/06/27 09:18:15;;;;;;;8.00;7.20;;;28.10;13.90;;;;;;5051547;28;20455;-74
2021/06/27 09:20:49;;;;;;;8.18;7.47;;;28.40;13.90;;;;;;5036482;28;20407;-74
2021/06/27 09:23:16;;;;;;;8.48;7.60;;;28.40;13.80;;;;;;5041936;28;20399;-76
2021/06/27 09:25:45;;;;;;;7.90;7.22;;;28.40;14.30;;;;;;5044514;28;20564;-76
2021/06/27 09:28:17;;;;;;;9.05;7.70;;;28.40;14.20;;;;;;5036357;28;20435;-76
2021/06/27 09:30:46;;;;;;;8.18;7.47;;;28.60;14.30;;;;;;5045097;28;20401;-76
2021/06/27 09:33:14;;;;;;;8.18;7.38;;;28.60;14.50;;;;;;5051920;28;20474;-76
2021/06/27 09:35:56;;;;;;;8.68;6.50;;;28.30;13.60;;;;;;5050195;28;20425;-77
2021/06/27 09:38:26;;;;;;;8.00;7.30;;;28.10;13.20;;;;;;5041043;28;20882;-76
2021/06/27 09:40:59;;;;;;;7.90;7.10;;;28.20;13.90;;;;;;5051559;28;20418;-76
2021/06/27 09:43:27;;;;;;;8.00;7.20;;;28.30;13.80;;;;;;5055369;28;20474;-76
2021/06/27 09:45:56;;;;;;;7.38;6.60;;;28.40;13.60;;;;;;5056241;28;20390;-76
2021/06/27 09:48:23;;;;;;;7.45;6.85;;;28.50;13.50;;;;;;5046192;28;20820;-76
2021/06/27 09:50:49;;;;;;;7.63;7.00;;;28.50;12.00;;;;;;5042880;28;20482;-74
2021/06/27 09:53:36;;;;;;;9.23;7.20;;;28.60;11.90;;;;;;5041127;28;20480;-76
2021/06/27 09:56:03;;;;;;;7.20;6.43;;;28.70;13.00;;;;;;5035025;28;20919;-76
2021/06/27 09:58:29;;;;;;;7.15;6.50;;;28.80;12.00;;;;;;5051956;28;20424;-75
2021/06/27 10:00:57;;;;;;;7.00;6.50;;;28.90;11.70;;;;;;5045986;28;20405;-77
2021/06/27 10:03:27;;;;;;;7.03;6.43;;;29.10;10.90;;;;;;5043525;28;20381;-76
2021/06/27 10:06:07;;;;;;;7.65;6.70;;;29.10;10.80;;;;;;5045923;28;20893;-75
2021/06/27 10:08:32;;;;;;;6.33;5.87;;;29.20;10.90;;;;;;5051548;28;20423;-76
2021/06/27 10:11:16;;;;;;;6.40;5.90;;;29.30;9.50;;;;;;5036136;28;20405;-72
2021/06/27 10:13:46;;;;;;;6.95;6.30;;;29.40;9.20;;;;;;5051915;28;20389;-75
2021/06/27 10:16:29;;;;;;;6.70;6.10;;;29.20;8.40;;;;;;5049951;28;20397;-76
2021/06/27 10:18:56;;;;;;;7.72;6.40;;;29.10;9.70;;;;;;5066541;28;20392;-76
2021/06/27 10:21:22;;;;;;;7.53;6.82;;;29.10;9.70;;;;;;5051605;28;20436;-77
2021/06/27 10:23:49;;;;;;;6.65;6.00;;;29.20;10.40;;;;;;5055269;28;20402;-77
2021/06/27 10:26:16;;;;;;;6.60;6.10;;;29.00;9.20;;;;;;5035128;28;20403;-77
2021/06/27 10:28:42;;;;;;;7.97;6.63;;;29.00;10.90;;;;;;5052248;28;20894;-76
2021/06/27 10:31:12;;;;;;;6.40;5.85;;;29.10;9.30;;;;;;5036164;28;20402;-76
2021/06/27 10:33:42;;;;;;;7.25;6.55;;;29.00;9.90;;;;;;5034025;28;20386;-77
2021/06/27 10:36:09;;;;;;;7.30;6.60;;;29.00;10.40;;;;;;5045896;28;20405;-75
2021/06/27 10:38:38;;;;;;;7.25;6.55;;;28.90;10.40;;;;;;5050035;28;20629;-76
2021/06/27 10:41:06;;;;;;;6.90;6.40;;;29.20;10.60;;;;;;5052458;28;20512;-76
2021/06/27 10:43:59;;;;;;;7.07;6.47;;;29.50;10.20;;;;;;5054329;28;20394;-77
2021/06/27 10:46:44;;;;;;;7.30;6.70;;;29.70;9.60;;;;;;5046483;28;20966;-75
2021/06/27 10:49:30;;;;;;;7.53;6.70;;;29.90;10.50;;;;;;5051332;28;20392;-77
2021/06/27 10:52:02;;;;;;;7.25;6.50;;;30.10;8.70;;;;;;5037527;28;20408;-76
2021/06/27 10:54:36;;;;;;;6.70;6.20;;;30.20;8.70;;;;;;5047414;28;20476;-75
2021/06/27 10:57:04;;;;;;;11.13;6.68;;;30.30;8.70;;;;;;5044194;28;20395;-77
2021/06/27 10:59:38;;;;;;;7.30;6.70;;;30.40;9.50;;;;;;5049135;28;20499;-76
2021/06/27 11:02:17;;;;;;;7.20;6.60;;;30.40;8.60;;;;;;5055493;28;20964;-76
2021/06/27 11:04:42;;;;;;;8.30;6.80;;;30.50;8.30;;;;;;5046995;28;20767;-76
2021/06/27 11:07:08;;;;;;;7.83;7.13;;;30.70;8.90;;;;;;5046391;28;20446;-76
2021/06/27 11:09:34;;;;;;;7.25;6.65;;;30.50;8.80;;;;;;5046648;28;20393;-76
2021/06/27 11:11:59;;;;;;;7.40;6.70;;;30.40;8.90;;;;;;5043494;28;20891;-76
2021/06/27 11:14:27;;;;;;;7.50;6.80;;;30.60;8.30;;;;;;5042256;28;20886;-76
2021/06/27 11:16:59;;;;;;;6.88;6.38;;;30.70;8.30;;;;;;5050845;28;20889;-76
2021/06/27 11:19:37;;;;;;;8.60;7.80;;;31.00;8.60;;;;;;5050498;28;20404;-76
2021/06/27 11:22:28;;;;;;;6.70;6.20;;;31.10;8.40;;;;;;5031236;28;20473;-76
2021/06/27 11:24:56;;;;;;;7.17;6.50;;;30.90;7.80;;;;;;5044945;28;20409;-75
2021/06/27 11:27:33;;;;;;;7.63;7.03;;;30.80;7.50;;;;;;5051171;28;20381;-76
2021/06/27 11:29:59;;;;;;;7.68;6.97;;;30.60;8.20;;;;;;5051083;28;20402;-77
2021/06/27 11:32:25;;;;;;;7.10;6.50;;;30.80;7.30;;;;;;5050717;28;20381;-76
2021/06/27 11:35:00;;;;;;;7.70;7.00;;;30.80;7.90;;;;;;5038496;28;20445;-77
2021/06/27 11:37:25;;;;;;;7.40;6.80;;;30.70;7.90;;;;;;5048406;28;20857;-77
2021/06/27 11:39:54;;;;;;;7.60;6.60;;;30.80;7.80;;;;;;5051849;28;20507;-75
2021/06/27 11:42:22;;;;;;;6.80;6.20;;;30.70;8.40;;;;;;5050820;28;20781;-75
2021/06/27 11:45:15;;;;;;;6.78;5.90;;;30.70;7.80;;;;;;5050422;28;21022;-76
2021/06/27 11:47:43;;;;;;;6.25;5.75;;;30.70;7.70;;;;;;5050097;28;20404;-76
2021/06/27 11:50:18;;;;;;;6.55;6.15;;;31.10;7.40;;;;;;5035777;28;20957;-76
2021/06/27 11:52:50;;;;;;;6.63;6.13;;;31.50;6.60;;;;;;5029680;28;20745;-76
2021/06/27 11:55:16;;;;;;;7.20;6.50;;;31.70;5.60;;;;;;5030549;28;20437;-76
2021/06/27 11:57:43;;;;;;;6.50;5.90;;;31.70;5.50;;;;;;5047756;28;20401;-76
2021/06/27 12:00:12;;;;;;;11.03;6.30;;;31.40;6.00;;;;;;5048864;28;20409;-76
2021/06/27 12:02:38;;;;;;;8.27;6.10;;;31.20;7.00;;;;;;5048876;28;20397;-76
2021/06/27 12:05:09;;;;;;;6.40;5.90;;;30.90;6.00;;;;;;5033190;28;20396;-77
2021/06/27 12:07:44;;;;;;;6.90;6.22;;;30.80;6.50;;;;;;5046866;28;20398;-75
2021/06/27 12:10:15;;;;;;;6.40;5.90;;;31.10;6.70;;;;;;5030651;28;20395;-77
2021/06/27 12:12:48;;;;;;;6.70;6.20;;;31.50;5.90;;;;;;5047746;28;20971;-77
2021/06/27 12:15:16;;;;;;;6.40;5.90;;;31.80;5.40;;;;;;5050746;28;20794;-77
2021/06/27 12:17:54;;;;;;;6.30;5.80;;;31.60;5.80;;;;;;5050104;28;20411;-76
2021/06/27 12:20:19;;;;;;;6.20;5.60;;;31.70;5.90;;;;;;5050206;28;20463;-77
2021/06/27 12:22:52;;;;;;;6.10;5.50;;;31.80;6.80;;;;;;5039598;28;20399;-75
2021/06/27 12:25:40;;;;;;;6.20;5.70;;;32.20;5.70;;;;;;5029323;28;20429;-77
2021/06/27 12:28:09;;;;;;;5.63;5.32;;;32.70;5.00;;;;;;5049275;28;20389;-75
2021/06/27 12:30:51;;;;;;;6.60;5.30;;;32.70;5.00;;;;;;5052849;28;20389;-76
2021/06/27 12:33:28;;;;;;;6.22;5.72;;;32.80;3.60;;;;;;5049845;28;20440;-76
2021/06/27 12:36:00;;;;;;;6.28;5.85;;;32.70;2.70;;;;;;5049890;28;20496;-76
2021/06/27 12:38:26;;;;;;;5.90;5.50;;;32.10;3.90;;;;;;5032870;28;20403;-77